page 4505 of 1016393 registered users

eBook PostsUsers

  1. 0nation7energy registered @ 2012-11-19 18:29:31, last login @ 2012-11-19 18:29:31
  2. 0skatepruner02 registered @ 2012-11-19 18:31:00, last login @ 2012-11-19 18:31:00
  3. 0greek11bakery registered @ 2012-11-19 18:31:23, last login @ 2012-11-19 18:31:23
  4. 0georgelove6 registered @ 2012-11-19 18:32:18, last login @ 2012-11-19 18:32:18
  5. 0porchpoland20 registered @ 2012-11-19 18:32:30, last login @ 2012-11-19 18:32:30
  6. 0voyagevein15 registered @ 2012-11-19 18:32:33, last login @ 2012-11-19 18:32:33
  7. 0sister21result registered @ 2012-11-19 18:33:01, last login @ 2012-11-19 18:33:01
  8. 0parcelgum3 registered @ 2012-11-19 18:33:23, last login @ 2012-11-19 18:33:23
  9. 0curvehelp23 registered @ 2012-11-19 18:33:30, last login @ 2012-11-19 18:33:30
  10. 0bulb34voice registered @ 2012-11-19 18:35:38, last login @ 2012-11-19 18:35:38
  11. 0shovelden5 registered @ 2012-11-19 18:37:15, last login @ 2012-11-19 18:37:15
  12. 0firdriver63 registered @ 2012-11-19 18:37:40, last login @ 2012-11-19 18:37:40
  13. 0plate46jury registered @ 2012-11-19 18:37:57, last login @ 2012-11-19 18:37:57
  14. 0lisa67thrill registered @ 2012-11-19 18:38:18, last login @ 2012-11-19 18:38:18
  15. 0dinnerclimb8 registered @ 2012-11-19 18:38:29, last login @ 2012-11-19 18:38:29
  16. 0monday9bulb registered @ 2012-11-19 18:38:33, last login @ 2012-11-19 18:38:33
  17. 0airbusplain56 registered @ 2012-11-19 18:38:47, last login @ 2012-11-19 18:38:47
  18. 0coinwhale46 registered @ 2012-11-19 18:39:13, last login @ 2012-11-19 18:39:13
  19. 0relishcolony5 registered @ 2012-11-19 18:39:48, last login @ 2012-11-19 18:39:48
  20. 0humor9plot registered @ 2012-11-19 18:41:43, last login @ 2012-11-19 18:41:43
  21. 0carol20open registered @ 2012-11-19 18:43:35, last login @ 2012-11-19 18:43:35
  22. 0korean96beauty registered @ 2012-11-19 18:44:29, last login @ 2012-11-19 18:44:29
  23. 0bag44turkey registered @ 2012-11-19 18:44:30, last login @ 2012-11-19 18:44:30
  24. 0cherry2larch registered @ 2012-11-19 18:44:55, last login @ 2012-11-19 18:44:55
  25. 0rest6seal registered @ 2012-11-19 18:45:39, last login @ 2012-11-19 18:45:39
  26. 0hampersnorway registered @ 2012-11-19 18:46:29, last login @ 2012-11-19 18:46:29
  27. 0routerslope6 registered @ 2012-11-19 18:48:16, last login @ 2012-11-19 18:48:16
  28. 0LED4Homes registered @ 2012-11-19 18:48:37, last login @ 2012-11-19 18:48:37
  29. 0portcolt0 registered @ 2012-11-19 18:49:04, last login @ 2012-11-19 18:49:04
  30. 0visebell45 registered @ 2012-11-19 18:51:05, last login @ 2012-11-19 18:51:05
  31. 0eidn registered @ 2012-11-19 18:51:46, last login @ 2012-11-19 18:59:42
  32. 0dewmile1 registered @ 2012-11-19 18:51:46, last login @ 2012-11-19 18:51:46
  33. 0value23effect registered @ 2012-11-19 18:52:59, last login @ 2012-11-19 18:52:59
  34. 0sugarsister47 registered @ 2012-11-19 18:53:59, last login @ 2012-11-19 18:53:59
  35. 0needletrial00 registered @ 2012-11-19 18:54:13, last login @ 2012-11-19 18:54:13
  36. 0blockedward69 registered @ 2012-11-19 18:55:15, last login @ 2012-11-19 18:55:15
  37. 0police36hub registered @ 2012-11-19 18:55:27, last login @ 2012-11-19 18:55:27
  38. 0lala88 registered @ 2012-11-19 18:56:02, last login @ 2012-11-19 18:58:31
  39. 0budget7index registered @ 2012-11-19 18:57:44, last login @ 2012-11-19 18:57:44
  40. 0vasefur6 registered @ 2012-11-19 18:57:47, last login @ 2012-11-19 18:57:47
  41. 0latexclub0 registered @ 2012-11-19 18:58:29, last login @ 2012-11-19 18:58:29
  42. 0brown37beet registered @ 2012-11-19 18:59:01, last login @ 2012-11-19 18:59:01
  43. 0foam4couch registered @ 2012-11-19 19:00:38, last login @ 2012-11-19 19:00:38
  44. 0maskpeace78 registered @ 2012-11-19 19:01:09, last login @ 2012-11-19 19:01:09
  45. 0cell03price registered @ 2012-11-19 19:02:12, last login @ 2012-11-19 19:02:12
  46. 0inch1regret registered @ 2012-11-19 19:02:32, last login @ 2012-11-19 19:52:49
  47. 0CendrIdne registered @ 2012-11-19 19:04:31, last login @ 2012-11-19 19:04:31
  48. 0baby71spot registered @ 2012-11-19 19:06:04, last login @ 2012-11-19 19:06:04
  49. 0handle23botany registered @ 2012-11-19 19:08:07, last login @ 2012-11-19 19:08:07
  50. 0peaturkey75 registered @ 2012-11-19 19:08:24, last login @ 2012-11-19 19:25:31
  51. 0jason74drawer registered @ 2012-11-19 19:09:47, last login @ 2012-11-19 19:09:47
  52. 0word0frog registered @ 2012-11-19 19:11:08, last login @ 2012-11-19 19:11:08
  53. 0prisonsnake0 registered @ 2012-11-19 19:11:52, last login @ 2012-11-19 19:11:52
  54. 0pantry1smash registered @ 2012-11-19 19:13:00, last login @ 2012-11-19 19:13:00
  55. 0chime54daisy registered @ 2012-11-19 19:14:50, last login @ 2012-11-19 19:14:50
  56. 0coloninput7 registered @ 2012-11-19 19:15:45, last login @ 2012-11-19 19:15:45
  57. 0dragonbrandy0 registered @ 2012-11-19 19:15:54, last login @ 2012-11-19 19:15:54
  58. 0bal59 registered @ 2012-11-19 19:16:48, last login @ 2012-11-19 19:16:48
  59. 0poppyoil18 registered @ 2012-11-19 19:17:40, last login @ 2012-11-19 19:17:40
  60. 0male16draw registered @ 2012-11-19 19:18:49, last login @ 2012-11-19 19:18:49
  61. 0geesetoe7 registered @ 2012-11-19 19:18:51, last login @ 2012-11-19 19:18:51
  62. 0cicada86lake registered @ 2012-11-19 19:19:15, last login @ 2012-11-19 19:19:15
  63. 0shorts2tire registered @ 2012-11-19 19:21:32, last login @ 2012-11-19 19:21:32
  64. 0drive2neck registered @ 2012-11-19 19:22:00, last login @ 2012-11-19 19:22:00
  65. 0pearbuffet78 registered @ 2012-11-19 19:22:35, last login @ 2012-11-19 19:22:35
  66. 0redstick89 registered @ 2012-11-19 19:22:37, last login @ 2012-11-19 19:22:37
  67. 0brandyiran61 registered @ 2012-11-19 19:23:58, last login @ 2012-11-19 19:23:58
  68. 0tempo9humor registered @ 2012-11-19 19:24:49, last login @ 2012-11-19 19:24:49
  69. 0radishbronze43 registered @ 2012-11-19 19:25:03, last login @ 2012-11-19 19:25:03
  70. 0coach26pastry registered @ 2012-11-19 19:26:11, last login @ 2012-11-19 19:26:11
  71. 0drum11book registered @ 2012-11-19 19:26:49, last login @ 2012-11-19 19:26:49
  72. 0duckvase9 registered @ 2012-11-19 19:27:42, last login @ 2012-11-19 19:27:42
  73. 0fowl4bugle registered @ 2012-11-19 19:29:10, last login @ 2012-11-19 19:29:10
  74. 0zudolemgymy225 registered @ 2012-11-19 19:29:22, last login @ 2012-11-19 19:29:22
  75. 0linen53spider registered @ 2012-11-19 19:31:41, last login @ 2012-11-19 19:31:41
  76. 0mask4wave registered @ 2012-11-19 19:32:12, last login @ 2012-11-19 19:32:12
  77. 0cloudy12word registered @ 2012-11-19 19:32:32, last login @ 2012-11-19 19:32:32
  78. 0poppy0song registered @ 2012-11-19 19:32:51, last login @ 2012-11-19 19:45:38
  79. 0bikecobweb71 registered @ 2012-11-19 19:34:28, last login @ 2012-11-19 19:34:28
  80. 0theory9select registered @ 2012-11-19 19:34:43, last login @ 2012-11-19 19:34:43
  81. 0eeltanker57 registered @ 2012-11-19 19:34:47, last login @ 2012-11-19 19:34:47
  82. 0turkeyera6 registered @ 2012-11-19 19:35:20, last login @ 2012-11-19 19:35:20
  83. 0shovelfaucet33 registered @ 2012-11-19 19:36:26, last login @ 2012-11-19 19:36:26
  84. 0steel9hen registered @ 2012-11-19 19:37:00, last login @ 2012-11-19 19:37:00
  85. 0pathguilty82 registered @ 2012-11-19 19:37:05, last login @ 2012-11-19 19:37:05
  86. 0hatsword62 registered @ 2012-11-19 19:37:55, last login @ 2012-11-19 19:37:55
  87. 0tree40hen registered @ 2012-11-19 19:40:29, last login @ 2012-11-19 19:40:29
  88. 0pan6jewel registered @ 2012-11-19 19:41:32, last login @ 2012-11-19 19:41:32
  89. 0jumpervision05 registered @ 2012-11-19 19:44:57, last login @ 2012-11-19 19:44:57
  90. 0frost4office registered @ 2012-11-19 19:45:30, last login @ 2012-11-19 19:45:30
  91. 0cowprofit0 registered @ 2012-11-19 19:45:52, last login @ 2012-11-19 19:45:52
  92. 0orderlan1 registered @ 2012-11-19 19:46:50, last login @ 2012-11-19 19:46:50
  93. 0cousinden9 registered @ 2012-11-19 19:47:22, last login @ 2012-11-19 19:47:22
  94. 0vanstart51 registered @ 2012-11-19 19:48:24, last login @ 2012-11-19 19:48:24
  95. 0996633 registered @ 2012-11-19 19:48:58, last login @ 2012-11-19 19:48:58
  96. 0cavestorm69 registered @ 2012-11-19 19:49:19, last login @ 2012-11-19 19:49:19
  97. 0studyrouter4 registered @ 2012-11-19 19:49:32, last login @ 2012-11-19 19:49:32
  98. 0double0yellow registered @ 2012-11-19 19:50:30, last login @ 2012-11-19 19:50:30
  99. 0africastring44 registered @ 2012-11-19 19:51:58, last login @ 2012-11-19 19:51:58
  100. 0nation41german registered @ 2012-11-19 19:52:12, last login @ 2012-11-19 19:52:12
  101. 0bra12fine registered @ 2012-11-19 19:53:02, last login @ 2012-11-19 19:53:02

More...

[4515] [4514] [4513] [4512] [4511] [4510] [4509] [4508] [4507] [4506] [4505] [4504] [4503] [4502] [4501] [4500] [4499] [4498] [4497] [4496] ...[1]
Back to Top